createdAt,value
2023-10-20T00:01:38.136Z,17.50
2023-10-20T00:04:06.325Z,18.10
2023-10-20T00:06:34.420Z,16.83
2023-10-20T00:09:02.305Z,16.53
2023-10-20T00:11:31.667Z,16.77
2023-10-20T00:13:59.736Z,18.40
2023-10-20T00:16:28.080Z,16.93
2023-10-20T00:18:56.001Z,16.23
2023-10-20T00:21:25.120Z,15.57
2023-10-20T00:23:53.028Z,16.93
2023-10-20T00:26:21.144Z,15.97
2023-10-20T00:28:52.415Z,15.77
2023-10-20T00:31:20.448Z,17.13
2023-10-20T00:33:51.153Z,17.47
2023-10-20T00:36:19.447Z,16.60
2023-10-20T00:38:47.392Z,16.50
2023-10-20T00:41:15.801Z,15.13
2023-10-20T00:43:44.235Z,14.97
2023-10-20T00:46:13.650Z,15.80
2023-10-20T00:48:41.713Z,17.00
2023-10-20T00:51:09.820Z,16.93
2023-10-20T00:53:38.252Z,15.80
2023-10-20T00:56:07.492Z,15.70
2023-10-20T00:58:35.631Z,16.67
2023-10-20T01:01:05.148Z,17.40
2023-10-20T01:03:36.804Z,15.57
2023-10-20T01:06:05.929Z,14.27
2023-10-20T01:08:33.914Z,14.63
2023-10-20T01:11:01.904Z,15.00
2023-10-20T01:13:29.866Z,15.47
2023-10-20T01:15:58.232Z,14.80
2023-10-20T01:18:26.398Z,14.83
2023-10-20T01:20:56.593Z,16.60
2023-10-20T01:23:24.884Z,15.23
2023-10-20T01:25:54.550Z,15.67
2023-10-20T01:28:22.457Z,14.83
2023-10-20T01:30:50.417Z,14.57
2023-10-20T01:33:18.959Z,14.60
2023-10-20T01:35:46.971Z,13.20
2023-10-20T01:38:14.895Z,14.30
2023-10-20T01:40:42.830Z,13.63
2023-10-20T01:43:12.121Z,13.80
2023-10-20T01:45:40.059Z,13.17
2023-10-20T01:48:08.784Z,12.70
2023-10-20T01:50:38.299Z,13.27
2023-10-20T01:53:06.430Z,13.23
2023-10-20T01:55:35.259Z,11.13
2023-10-20T01:58:03.173Z,11.83
2023-10-20T02:00:32.590Z,11.70
2023-10-20T02:03:00.600Z,11.10
2023-10-20T02:05:28.669Z,11.23
2023-10-20T02:07:56.616Z,11.00
2023-10-20T02:10:24.565Z,10.70
2023-10-20T02:12:52.727Z,10.37
2023-10-20T02:15:20.636Z,10.77
2023-10-20T02:17:49.931Z,10.40
2023-10-20T02:20:22.074Z,10.53
2023-10-20T02:22:51.143Z,10.03
2023-10-20T02:25:19.544Z,9.73
2023-10-20T02:27:48.209Z,10.53
2023-10-20T02:30:17.992Z,9.87
2023-10-20T02:32:46.088Z,9.60
2023-10-20T02:35:16.020Z,8.30
2023-10-20T02:37:43.968Z,7.67
2023-10-20T02:40:12.661Z,8.93
2023-10-20T02:42:44.503Z,8.10
2023-10-20T02:45:13.015Z,7.13
2023-10-20T02:47:41.146Z,6.87
2023-10-20T02:50:09.923Z,6.43
2023-10-20T02:52:39.222Z,7.07
2023-10-20T02:55:07.720Z,7.20
2023-10-20T02:57:37.400Z,6.13
2023-10-20T03:00:11.085Z,6.80
2023-10-20T03:02:39.132Z,6.30
2023-10-20T03:05:09.064Z,6.70
2023-10-20T03:07:37.031Z,5.67
2023-10-20T03:10:07.411Z,6.77
2023-10-20T03:12:35.366Z,6.13
2023-10-20T03:15:05.022Z,5.67
2023-10-20T03:17:33.050Z,8.47
2023-10-20T03:20:01.478Z,6.47
2023-10-20T03:22:30.401Z,8.37
2023-10-20T03:24:59.329Z,7.87
2023-10-20T03:27:29.243Z,6.27
2023-10-20T03:29:57.319Z,5.93
2023-10-20T03:32:25.937Z,7.47
2023-10-20T03:34:53.926Z,5.93
2023-10-20T03:37:21.812Z,6.67
2023-10-20T03:39:51.688Z,5.77
2023-10-20T03:42:19.543Z,6.33
2023-10-20T03:44:49.183Z,6.00
2023-10-20T03:47:18.496Z,6.17
2023-10-20T03:49:47.706Z,6.33
2023-10-20T03:52:15.611Z,6.50
2023-10-20T03:54:45.711Z,6.73
2023-10-20T03:57:16.738Z,6.63
2023-10-20T03:59:48.308Z,7.20
2023-10-20T04:02:16.269Z,6.97
2023-10-20T04:04:44.316Z,6.30
2023-10-20T04:07:12.249Z,7.53
2023-10-20T04:09:40.210Z,7.77
2023-10-20T04:12:08.409Z,7.03
2023-10-20T04:14:36.452Z,7.60
2023-10-20T04:17:05.975Z,6.77
2023-10-20T04:19:35.918Z,6.50
2023-10-20T04:22:13.529Z,8.30
2023-10-20T04:24:42.314Z,6.93
2023-10-20T04:27:21.793Z,6.00
2023-10-20T04:30:09.967Z,7.80
2023-10-20T04:32:56.759Z,6.50
2023-10-20T04:35:42.223Z,8.00
2023-10-20T04:38:27.663Z,6.90
2023-10-20T04:41:09.522Z,7.30
2023-10-20T04:43:42.870Z,7.77
2023-10-20T04:46:28.418Z,8.07
2023-10-20T05:02:33.652Z,6.63
2023-10-20T05:05:02.455Z,7.37
2023-10-20T05:07:30.327Z,7.50
2023-10-20T05:09:58.211Z,7.03
2023-10-20T05:12:26.501Z,7.27
2023-10-20T05:14:55.718Z,8.07
2023-10-20T05:17:26.211Z,7.93
2023-10-20T05:19:54.924Z,7.87
2023-10-20T05:22:23.296Z,7.47
2023-10-20T05:24:53.011Z,8.47
2023-10-20T05:27:20.976Z,8.00
2023-10-20T05:29:48.876Z,8.97
2023-10-20T05:32:17.416Z,10.93
2023-10-20T05:34:47.003Z,9.17
2023-10-20T05:37:15.718Z,9.53
2023-10-20T05:39:43.646Z,9.03
2023-10-20T05:42:11.739Z,9.20
2023-10-20T05:44:49.115Z,8.37
2023-10-20T05:47:17.157Z,8.97
2023-10-20T05:49:46.876Z,11.53
2023-10-20T05:52:14.928Z,10.30
2023-10-20T05:54:43.044Z,9.23
2023-10-20T05:57:11.130Z,8.90
2023-10-20T05:59:41.835Z,8.73
2023-10-20T06:02:09.822Z,11.10
2023-10-20T06:04:38.564Z,10.60
2023-10-20T06:07:08.871Z,10.33
2023-10-20T06:09:36.837Z,9.37
2023-10-20T06:12:08.092Z,10.53
2023-10-20T06:14:37.419Z,9.63
2023-10-20T06:17:05.624Z,9.47
2023-10-20T06:19:33.605Z,10.17
2023-10-20T06:22:02.054Z,9.07
2023-10-20T06:24:31.445Z,11.60
2023-10-20T06:27:03.597Z,9.60
2023-10-20T06:29:43.650Z,10.37
2023-10-20T06:32:22.983Z,12.20
2023-10-20T06:34:52.968Z,10.37
2023-10-20T06:37:29.503Z,15.63
2023-10-20T06:39:59.265Z,15.73
2023-10-20T06:42:27.191Z,12.20
2023-10-20T06:44:55.754Z,12.63
2023-10-20T06:47:23.876Z,13.03
2023-10-20T06:49:51.825Z,10.47
2023-10-20T06:52:19.777Z,12.43
2023-10-20T06:55:08.374Z,11.43
2023-10-20T06:57:38.957Z,11.53
2023-10-20T07:00:17.176Z,17.30
2023-10-20T07:02:45.375Z,13.00
2023-10-20T07:05:13.390Z,12.53
2023-10-20T07:07:41.547Z,10.93
2023-10-20T07:10:11.819Z,12.70
2023-10-20T07:12:41.139Z,12.00
2023-10-20T07:15:10.154Z,10.93
2023-10-20T07:17:38.149Z,11.77
2023-10-20T07:20:08.329Z,10.43
2023-10-20T07:22:36.440Z,10.67
2023-10-20T07:25:04.627Z,10.90
2023-10-20T07:27:32.474Z,10.97
2023-10-20T07:30:01.952Z,9.33
2023-10-20T07:32:30.147Z,11.13
2023-10-20T07:34:58.239Z,10.63
2023-10-20T07:37:26.158Z,11.47
2023-10-20T07:39:54.020Z,12.30
2023-10-20T07:42:21.914Z,9.03
2023-10-20T07:44:49.960Z,11.80
2023-10-20T07:47:19.325Z,10.73
2023-10-20T07:49:47.446Z,9.20
2023-10-20T07:52:15.393Z,8.50
2023-10-20T07:54:43.385Z,9.30
2023-10-20T07:57:11.805Z,9.67
2023-10-20T07:59:40.123Z,9.93
2023-10-20T08:02:07.997Z,10.00
2023-10-20T08:04:37.951Z,10.77
2023-10-20T08:07:06.161Z,10.63
2023-10-20T08:09:34.614Z,9.63
2023-10-20T08:12:03.826Z,7.73
2023-10-20T08:14:31.849Z,8.23
2023-10-20T08:17:04.436Z,9.20
2023-10-20T08:19:32.788Z,7.13
2023-10-20T08:22:02.647Z,8.00
2023-10-20T08:24:30.686Z,8.70
2023-10-20T08:26:58.902Z,6.97
2023-10-20T08:29:26.848Z,6.93
2023-10-20T08:31:54.772Z,7.53
2023-10-20T08:34:22.936Z,6.90
2023-10-20T08:36:51.031Z,7.03
2023-10-20T08:39:23.630Z,7.53
2023-10-20T08:41:52.311Z,7.37
2023-10-20T08:44:20.974Z,8.87
2023-10-20T08:46:50.260Z,7.33
2023-10-20T08:49:19.474Z,7.73
2023-10-20T08:51:48.665Z,7.60
2023-10-20T08:54:17.467Z,9.43
2023-10-20T08:56:47.169Z,7.57
2023-10-20T08:59:15.057Z,7.73
2023-10-20T09:01:43.606Z,7.90
2023-10-20T09:04:22.291Z,8.33
2023-10-20T09:06:50.424Z,7.50
2023-10-20T09:09:18.665Z,7.47
2023-10-20T09:11:48.656Z,7.30
2023-10-20T09:14:17.148Z,6.83
2023-10-20T09:16:46.558Z,8.17
2023-10-20T09:19:15.181Z,8.40
2023-10-20T09:21:47.537Z,8.20
2023-10-20T09:24:18.446Z,8.60
2023-10-20T09:26:47.847Z,9.17
2023-10-20T09:29:16.578Z,9.67
2023-10-20T09:31:44.687Z,7.27
2023-10-20T09:34:12.754Z,7.50
2023-10-20T09:36:41.909Z,9.33
2023-10-20T09:39:12.276Z,6.97
2023-10-20T09:41:46.289Z,6.73
2023-10-20T09:44:21.433Z,6.90
2023-10-20T09:46:55.584Z,5.70
2023-10-20T09:49:25.725Z,8.10
2023-10-20T09:51:55.405Z,6.97
2023-10-20T09:54:25.305Z,6.83
2023-10-20T09:56:53.906Z,6.47
2023-10-20T09:59:27.181Z,6.67
2023-10-20T10:01:56.829Z,6.80
2023-10-20T10:04:27.319Z,6.87
2023-10-20T10:06:55.469Z,8.07
2023-10-20T10:09:23.480Z,6.07
2023-10-20T10:11:56.641Z,5.87
2023-10-20T10:14:27.458Z,6.33
2023-10-20T10:17:00.046Z,6.13
2023-10-20T10:19:29.754Z,5.97
2023-10-20T10:21:59.069Z,7.33
2023-10-20T10:24:27.129Z,5.80
2023-10-20T10:26:56.566Z,5.73
2023-10-20T10:29:52.042Z,5.70
2023-10-20T10:32:21.201Z,4.90
2023-10-20T10:34:50.499Z,4.13
2023-10-20T10:37:30.677Z,5.40
2023-10-20T10:40:09.823Z,6.10
2023-10-20T10:42:39.772Z,7.13
2023-10-20T10:45:20.884Z,8.27
2023-10-20T10:47:49.115Z,5.00
2023-10-20T10:50:18.150Z,6.43
2023-10-20T10:52:46.254Z,6.23
2023-10-20T10:55:14.590Z,5.97
2023-10-20T10:57:43.531Z,4.97
2023-10-20T11:00:16.862Z,6.47
2023-10-20T11:02:46.608Z,5.07
2023-10-20T11:05:14.991Z,7.10
2023-10-20T11:07:43.114Z,5.90
2023-10-20T11:10:11.220Z,5.50
2023-10-20T11:12:39.158Z,5.13
2023-10-20T11:15:08.379Z,6.07
2023-10-20T11:17:37.450Z,5.63
2023-10-20T11:20:10.690Z,5.87
2023-10-20T11:22:39.705Z,7.10
2023-10-20T11:25:09.877Z,5.07
2023-10-20T11:27:44.422Z,5.97
2023-10-20T11:30:12.942Z,6.03
2023-10-20T11:32:42.693Z,5.80
2023-10-20T11:35:12.114Z,6.13
2023-10-20T11:37:40.001Z,4.77
2023-10-20T11:40:09.853Z,4.90
2023-10-20T11:42:37.737Z,7.10
2023-10-20T11:45:07.193Z,7.43
2023-10-20T11:47:35.552Z,4.60
2023-10-20T11:50:03.549Z,4.13
2023-10-20T11:52:32.799Z,4.43
2023-10-20T11:55:01.239Z,3.90
2023-10-20T11:57:29.142Z,5.17
2023-10-20T11:59:57.165Z,3.77
2023-10-20T12:02:25.258Z,4.77
2023-10-20T12:04:53.619Z,4.83
2023-10-20T12:07:21.794Z,4.97
2023-10-20T12:09:51.433Z,3.50
2023-10-20T12:12:19.328Z,4.40
2023-10-20T12:14:47.312Z,3.40
2023-10-20T12:17:16.146Z,4.83
2023-10-20T12:19:44.207Z,3.47
2023-10-20T12:22:12.301Z,3.90
2023-10-20T12:24:40.411Z,3.80
2023-10-20T12:27:12.991Z,4.00
2023-10-20T12:29:42.365Z,4.53
2023-10-20T12:32:14.141Z,4.50
2023-10-20T12:34:42.562Z,3.90
2023-10-20T12:37:11.686Z,3.47
2023-10-20T12:39:41.303Z,3.40
2023-10-20T12:42:11.108Z,4.63
2023-10-20T12:44:39.899Z,3.10
2023-10-20T12:47:08.163Z,3.07
2023-10-20T12:49:36.159Z,3.07
2023-10-20T12:52:05.277Z,3.53
2023-10-20T12:54:33.465Z,4.03
2023-10-20T12:57:02.090Z,2.50
2023-10-20T12:59:31.435Z,2.60
2023-10-20T13:01:59.733Z,2.40
2023-10-20T13:04:27.842Z,1.90
2023-10-20T13:07:00.407Z,3.13
2023-10-20T13:09:28.929Z,2.20
2023-10-20T13:11:58.615Z,2.50
2023-10-20T13:14:26.744Z,2.17
2023-10-20T13:16:56.028Z,4.63
2023-10-20T13:19:24.188Z,2.57
2023-10-20T13:21:52.310Z,2.80
2023-10-20T13:24:20.192Z,2.70
2023-10-20T13:26:48.146Z,2.70
2023-10-20T13:29:16.738Z,2.87
2023-10-20T13:31:44.791Z,2.70
2023-10-20T13:34:14.155Z,2.50
2023-10-20T13:36:42.091Z,2.43
2023-10-20T13:41:41.323Z,3.27
2023-10-20T13:44:11.188Z,2.23
2023-10-20T13:46:39.105Z,5.20
2023-10-20T13:49:08.293Z,2.13
2023-10-20T13:51:37.972Z,3.03
2023-10-20T13:54:06.434Z,2.07
2023-10-20T13:56:34.439Z,3.77
2023-10-20T13:59:02.372Z,3.30
2023-10-20T14:01:30.472Z,1.80
2023-10-20T14:03:58.527Z,2.07
2023-10-20T14:06:26.906Z,1.80
2023-10-20T14:08:56.289Z,2.47
2023-10-20T14:11:24.280Z,1.50
2023-10-20T14:13:52.187Z,2.60
2023-10-20T14:16:21.010Z,1.87
2023-10-20T14:18:48.990Z,2.47
2023-10-20T14:21:16.907Z,2.77
2023-10-20T14:23:44.857Z,3.47
2023-10-20T14:26:14.094Z,3.03
2023-10-20T14:28:42.171Z,3.17
2023-10-20T14:31:10.122Z,2.67
2023-10-20T14:33:38.039Z,1.90
2023-10-20T14:36:06.882Z,3.77
2023-10-20T14:38:35.565Z,3.03
2023-10-20T14:41:04.315Z,3.07
2023-10-20T14:43:35.561Z,2.37
2023-10-20T14:46:04.814Z,2.77
2023-10-20T14:48:33.247Z,4.23
2023-10-20T14:51:01.581Z,2.90
2023-10-20T14:53:29.797Z,2.53
2023-10-20T14:55:57.720Z,3.00
2023-10-20T14:58:25.548Z,2.93
2023-10-20T15:00:55.003Z,2.17
2023-10-20T15:03:23.160Z,2.10
2023-10-20T15:05:51.833Z,2.37
2023-10-20T15:08:20.859Z,2.03
2023-10-20T15:10:49.534Z,3.00
2023-10-20T15:13:17.450Z,3.53
2023-10-20T15:15:45.412Z,2.10
2023-10-20T15:18:14.913Z,2.30
2023-10-20T15:20:43.177Z,2.27
2023-10-20T15:23:17.880Z,1.97
2023-10-20T15:25:46.854Z,2.87
2023-10-20T15:28:14.797Z,2.17
2023-10-20T15:30:45.022Z,1.63
2023-10-20T15:33:15.202Z,2.43
2023-10-20T15:35:44.787Z,1.60
2023-10-20T15:38:13.336Z,3.13
2023-10-20T15:40:41.682Z,2.07
2023-10-20T15:43:09.646Z,1.40
2023-10-20T15:45:37.559Z,1.70
2023-10-20T15:48:06.386Z,3.07
2023-10-20T15:50:36.136Z,1.57
2023-10-20T15:53:04.562Z,2.40
2023-10-20T15:55:40.523Z,3.07
2023-10-20T15:58:08.638Z,1.90
2023-10-20T16:00:36.783Z,2.40
2023-10-20T16:03:05.863Z,2.20
2023-10-20T16:05:35.294Z,2.10
2023-10-20T16:08:03.274Z,2.60
2023-10-20T16:10:31.690Z,2.07
2023-10-20T16:12:59.666Z,2.80
2023-10-20T16:15:29.378Z,2.60
2023-10-20T16:17:57.706Z,2.80
2023-10-20T16:20:25.746Z,2.50
2023-10-20T16:22:55.528Z,2.30
2023-10-20T16:25:23.568Z,3.17
2023-10-20T16:27:52.068Z,3.97
2023-10-20T16:30:19.937Z,2.43
2023-10-20T16:32:47.936Z,2.20
2023-10-20T16:35:15.984Z,2.00
2023-10-20T16:37:43.882Z,2.17
2023-10-20T16:40:14.323Z,3.47
2023-10-20T16:42:42.156Z,5.60
2023-10-20T16:45:11.391Z,2.63
2023-10-20T16:47:39.892Z,2.60
2023-10-20T16:50:08.358Z,2.10
2023-10-20T16:52:38.136Z,2.30
2023-10-20T16:55:06.784Z,2.40
2023-10-20T16:57:36.080Z,2.37
2023-10-20T17:00:06.937Z,2.53
2023-10-20T17:02:35.081Z,2.20
2023-10-20T17:05:03.219Z,2.77
2023-10-20T17:07:31.132Z,2.87
2023-10-20T17:09:59.810Z,2.87
2023-10-20T17:12:27.784Z,2.77
2023-10-20T17:14:57.393Z,3.67
2023-10-20T17:17:25.424Z,2.93
2023-10-20T17:19:53.710Z,3.00
2023-10-20T17:22:21.783Z,4.83
2023-10-20T17:24:49.648Z,2.97
2023-10-20T17:27:17.715Z,3.10
2023-10-20T17:29:45.834Z,5.10
2023-10-20T17:32:17.010Z,3.80
2023-10-20T17:34:44.884Z,3.40
2023-10-20T17:37:15.183Z,3.80
2023-10-20T17:39:43.296Z,3.53
2023-10-20T17:42:11.504Z,5.80
2023-10-20T17:44:39.460Z,5.03
2023-10-20T17:47:07.389Z,5.53
2023-10-20T17:49:36.729Z,4.13
2023-10-20T17:52:05.323Z,4.97
2023-10-20T17:54:33.210Z,5.07
2023-10-20T17:57:01.291Z,5.40
2023-10-20T17:59:29.267Z,4.43
2023-10-20T18:01:57.341Z,3.93
2023-10-20T18:04:25.735Z,4.40
2023-10-20T18:06:55.112Z,4.30
2023-10-20T18:09:23.584Z,5.13
2023-10-20T18:11:51.612Z,4.57
2023-10-20T18:14:19.641Z,6.43
2023-10-20T18:16:50.298Z,5.10
2023-10-20T18:19:19.660Z,4.90
2023-10-20T18:21:47.583Z,5.57
2023-10-20T18:24:16.876Z,5.00
2023-10-20T18:26:44.796Z,6.30
2023-10-20T18:29:13.288Z,6.63
2023-10-20T18:31:41.190Z,5.97
2023-10-20T18:34:09.403Z,6.60
2023-10-20T18:36:38.690Z,6.60
2023-10-20T18:39:07.080Z,8.70
2023-10-20T18:41:37.110Z,7.77
2023-10-20T18:44:05.713Z,10.37
2023-10-20T18:46:33.631Z,8.67
2023-10-20T18:49:01.538Z,8.77
2023-10-20T18:51:30.074Z,7.67
2023-10-20T18:53:58.069Z,9.30
2023-10-20T18:56:26.162Z,8.97
2023-10-20T18:58:55.379Z,8.10
2023-10-20T19:01:23.728Z,6.53
2023-10-20T19:03:52.498Z,8.37
2023-10-20T19:06:21.104Z,6.17
2023-10-20T19:08:48.995Z,7.87
2023-10-20T19:11:16.975Z,8.90
2023-10-20T19:13:45.172Z,6.77
2023-10-20T19:16:14.463Z,8.57
2023-10-20T19:18:42.542Z,6.53
2023-10-20T19:21:12.303Z,6.90
2023-10-20T19:23:40.468Z,7.30
2023-10-20T19:26:11.196Z,6.33
2023-10-20T19:28:39.881Z,9.57
2023-10-20T19:31:09.311Z,7.27
2023-10-20T19:33:39.189Z,7.27
2023-10-20T19:36:09.715Z,6.70
2023-10-20T19:38:37.968Z,7.07
2023-10-20T19:41:06.153Z,7.93
2023-10-20T19:43:34.020Z,7.90
2023-10-20T19:46:02.016Z,7.57
2023-10-20T19:48:30.013Z,8.57
2023-10-20T19:50:59.366Z,9.63
2023-10-20T19:53:27.349Z,6.90
2023-10-20T19:55:55.285Z,10.00
2023-10-20T19:58:23.590Z,8.03
2023-10-20T20:00:53.937Z,8.33
2023-10-20T20:03:22.120Z,8.80
2023-10-20T20:05:50.180Z,8.93
2023-10-20T20:08:19.445Z,10.90
2023-10-20T20:10:47.379Z,11.47
2023-10-20T20:13:15.620Z,9.50
2023-10-20T20:15:43.649Z,11.77
2023-10-20T20:18:11.624Z,10.87
2023-10-20T20:20:39.574Z,13.67
2023-10-20T20:23:07.595Z,10.60
2023-10-20T20:25:36.907Z,11.53
2023-10-20T20:28:05.278Z,10.63
2023-10-20T20:30:34.128Z,13.03
2023-10-20T20:33:02.283Z,12.30
2023-10-20T20:35:30.186Z,13.23
2023-10-20T20:37:58.065Z,14.20
2023-10-20T20:40:26.199Z,12.93
2023-10-20T20:42:55.454Z,13.80
2023-10-20T20:45:23.384Z,12.93
2023-10-20T20:47:51.575Z,13.70
2023-10-20T20:50:32.194Z,14.37
2023-10-20T20:53:01.741Z,14.33
2023-10-20T20:55:29.704Z,13.47
2023-10-20T20:57:58.937Z,13.83
2023-10-20T21:00:26.885Z,13.40
2023-10-20T21:02:54.953Z,12.40
2023-10-20T21:05:22.995Z,11.83
2023-10-20T21:07:50.911Z,14.37
2023-10-20T21:10:19.116Z,15.17
2023-10-20T21:12:47.326Z,13.20
2023-10-20T21:15:16.594Z,15.03
2023-10-20T21:17:44.656Z,14.53
2023-10-20T21:20:13.213Z,13.17
2023-10-20T21:22:41.598Z,11.87
2023-10-20T21:25:10.915Z,13.33
2023-10-20T21:27:38.812Z,15.43
2023-10-20T21:30:09.435Z,13.60
2023-10-20T21:32:38.944Z,15.33
2023-10-20T21:35:07.648Z,14.13
2023-10-20T21:37:35.581Z,15.47
2023-10-20T21:40:03.831Z,16.47
2023-10-20T21:42:33.739Z,17.20
2023-10-20T21:45:01.723Z,15.43
2023-10-20T21:47:30.435Z,16.90
2023-10-20T21:49:59.788Z,16.63
2023-10-20T21:52:27.861Z,16.97
2023-10-20T21:54:56.182Z,16.37
2023-10-20T21:57:24.362Z,19.83
2023-10-20T21:59:52.187Z,15.77
2023-10-20T22:02:20.300Z,16.50
2023-10-20T22:04:48.407Z,15.20
2023-10-20T22:07:17.693Z,14.03
2023-10-20T22:09:53.673Z,17.77
2023-10-20T22:12:22.587Z,17.10
2023-10-20T22:14:51.358Z,19.03
2023-10-20T22:17:19.722Z,18.47
2023-10-20T22:19:48.338Z,14.67
2023-10-20T22:22:17.875Z,16.80
2023-10-20T22:24:46.042Z,19.07
2023-10-20T22:27:14.056Z,17.77
2023-10-20T22:29:42.151Z,18.07
2023-10-20T22:32:10.858Z,18.70
2023-10-20T22:34:38.783Z,16.60
2023-10-20T22:37:06.931Z,17.00
2023-10-20T22:39:36.446Z,19.33
2023-10-20T22:42:05.014Z,21.67
2023-10-20T22:44:32.993Z,20.20
2023-10-20T22:47:03.694Z,20.77
2023-10-20T22:49:32.006Z,24.03
2023-10-20T22:51:59.874Z,19.80
2023-10-20T22:54:27.847Z,20.30
2023-10-20T22:56:57.307Z,21.43
2023-10-20T22:59:25.396Z,22.73
2023-10-20T23:01:53.514Z,21.73
2023-10-20T23:04:23.513Z,22.07
2023-10-20T23:06:51.589Z,24.20
2023-10-20T23:09:19.538Z,20.43
2023-10-20T23:11:48.024Z,27.20
2023-10-20T23:14:17.964Z,17.57
2023-10-20T23:16:46.145Z,20.87
2023-10-20T23:19:14.092Z,22.53
2023-10-20T23:21:42.256Z,23.43
2023-10-20T23:24:10.962Z,21.83
2023-10-20T23:26:39.293Z,28.30
2023-10-20T23:29:07.271Z,21.90
2023-10-20T23:31:36.480Z,22.63
2023-10-20T23:34:04.538Z,25.33
2023-10-20T23:36:32.440Z,22.57
2023-10-20T23:39:00.334Z,22.60
2023-10-20T23:41:28.270Z,22.47
2023-10-20T23:43:56.188Z,21.20
2023-10-20T23:46:24.142Z,24.87
2023-10-20T23:48:53.488Z,25.43
2023-10-20T23:51:22.037Z,24.93
2023-10-20T23:53:50.012Z,22.70
2023-10-20T23:56:18.165Z,21.83
2023-10-20T23:58:46.691Z,21.50
